< Cyclone 199103 1991 Season Cyclone 199105 >
Cyclone 199104 (DAPHNE)
General InformationTrack Information on Google MapsDetailed Wind InformationList of All Images || ResourceGoogle EarthGE AnimationAtom FeedGeoJSON
Detalied Best Track (Time Zone = UTC)
Year Month Day Hour Lat. Long. Pressure (hPa) Wind (kt) Class Image Chart
1991 2 21 00 -18.0 127.8 997 35 3 Image --
1991 2 21 06 -18.2 126.5 996 37 3 Image --
1991 2 21 12 -18.4 125.2 996 37 3 Image --
1991 2 21 18 -18.6 123.8 996 37 3 Image --
1991 2 22 00 -18.7 122.5 996 37 3 Image --
1991 2 22 03 -18.8 121.9 994 41 3 Image --
1991 2 22 06 -18.8 121.3 991 45 3 Image --
1991 2 22 09 -18.9 120.6 988 49 4 Image --
1991 2 22 12 -19.0 120.1 986 53 4 Image --
1991 2 22 15 -19.1 119.3 984 56 4 Image --
1991 2 22 18 -19.2 118.5 982 58 4 Image --
1991 2 22 21 -19.3 117.9 982 58 4 Image --
1991 2 23 00 -19.4 117.4 980 60 4 Image --
1991 2 23 03 -19.6 116.7 978 64 5 Image --
1991 2 23 06 -20.0 115.9 976 66 5 Image --
1991 2 23 09 -20.2 115.1 976 66 5 Image --
1991 2 23 12 -20.1 114.5 978 64 5 Image --
1991 2 23 15 -20.2 113.9 980 60 4 Image --
1991 2 23 18 -20.3 113.3 982 58 4 Image --
1991 2 23 21 -20.3 112.9 984 56 4 Image --
1991 2 24 00 -20.3 112.7 987 51 4 Image --
1991 2 24 06 -20.3 112.3 990 47 3 Image --
1991 2 24 12 -20.1 112.3 992 43 3 Image --
1991 2 24 18 -20.0 112.3 994 41 3 Image --
1991 2 25 00 -19.9 112.4 995 39 3 Image --
1991 2 25 06 -20.0 112.5 995 39 3 Image --
1991 2 25 12 -20.3 112.3 995 39 3 Image --
1991 2 25 18 -20.8 111.9 995 39 3 Image --
1991 2 26 00 -21.3 111.5 996 37 3 Image --
1991 2 26 06 -22.4 111.1 996 37 3 Image --
1991 2 26 12 -23.4 110.5 998 35 3 Image --
1991 2 26 18 -24.0 109.6 999 33 2 Image --
1991 2 27 00 -24.5 108.5 1000 31 2 Image --
1991 2 27 06 -25.1 107.4 1000 31 2 Image --
1991 2 27 12 -25.7 106.1 1002 27 2 Image --
1991 2 27 18 -26.3 104.7 1002 27 2 Image --
1991 2 28 00 -27.0 103.4 1004 25 2 Image --
1991 2 28 06 -27.8 102.2 1004 25 2 Image --
1991 2 28 12 -28.8 101.5 1004 25 2 Image --
< Cyclone 199103 1991 Season Cyclone 199105 >

Help